Watts Bar Observed Data For Previous 48 Hours

Caption
Day and Hour Reservoir Elevation (behind dam)* Tailwater Elevation (below dam)* Average Hourly Discharge*
1/15/2018 2 AM EST 736.62 677.11 10,198
1/15/2018 3 AM EST 736.53 677.42 10,312
1/15/2018 4 AM EST 736.44 678.79 17,598
1/15/2018 5 AM EST 736.42 678.94 25,020
1/15/2018 6 AM EST 736.49 679.02 24,921
1/15/2018 7 AM EST 736.48 679.01 25,009
1/15/2018 8 AM EST 736.54 678.98 25,069
1/15/2018 9 AM EST 736.55 678.97 25,027
1/15/2018 10 AM EST 736.56 678.98 25,015
1/15/2018 11 AM EST 736.59 678.98 25,007
1/15/2018 12 PM EST 736.67 678.23 23,961
1/15/2018 1 PM EST 736.67 677.95 15,160
1/15/2018 2 PM EST 736.61 677.36 10,409
1/15/2018 3 PM EST 736.58 677.26 10,187
1/15/2018 4 PM EST 736.60 677.22 10,175
1/15/2018 5 PM EST 736.63 677.22 10,221
1/15/2018 6 PM EST 736.62 677.28 10,318
1/15/2018 7 PM EST 736.63 677.63 15,132
1/15/2018 8 PM EST 736.58 677.91 15,580
1/15/2018 9 PM EST 736.58 678.70 25,049
1/15/2018 10 PM EST 736.58 678.74 25,046
1/15/2018 11 PM EST 736.61 678.74 25,100
1/16/2018 12 AM EST 736.62 678.72 25,112
1/16/2018 1 AM EST 736.61 678.71 25,099
1/16/2018 2 AM EST 736.61 678.67 25,139
1/16/2018 3 AM EST 736.59 677.47 15,620
1/16/2018 4 AM EST 736.59 677.36 15,270
1/16/2018 5 AM EST 736.59 677.44 15,268
1/16/2018 6 AM EST 736.58 677.88 15,640
1/16/2018 7 AM EST 736.48 680.04 27,212
1/16/2018 8 AM EST 736.44 680.94 45,028
1/16/2018 9 AM EST 736.45 681.19 45,420
1/16/2018 10 AM EST 736.41 681.32 45,647
1/16/2018 11 AM EST 736.55 679.47 32,672
1/16/2018 12 PM EST 736.66 679.10 24,984
1/16/2018 1 PM EST 736.61 678.86 24,979
1/16/2018 2 PM EST 736.63 677.65 15,664
1/16/2018 3 PM EST 736.65 677.00 10,460
1/16/2018 4 PM EST 736.63 676.94 10,214
1/16/2018 5 PM EST 736.65 676.99 10,244
1/16/2018 6 PM EST 736.62 678.62 17,006
1/16/2018 7 PM EST 736.49 680.11 27,295
1/16/2018 8 PM EST 736.49 680.98 44,998
1/16/2018 9 PM EST 736.52 681.14 45,254
1/16/2018 10 PM EST 736.54 681.23 45,475
1/16/2018 11 PM EST 736.53 681.23 45,554
1/17/2018 12 AM EST 736.51 681.28 45,602
1/17/2018 1 AM EST 736.52 679.15 25,530
1/17/2018 2 AM EST 736.54 678.90 25,017
1/17/2018 3 AM EST 736.60 677.61 15,676
1/17/2018 4 AM EST 736.65 677.43 15,321
1/17/2018 5 AM EST 736.59 677.39 15,340
1/17/2018 6 AM EST 736.54 678.19 16,369
1/17/2018 7 AM EST 736.42 680.00 27,232
1/17/2018 8 AM EST 736.44 680.92 44,984
1/17/2018 9 AM EST 736.51 681.15 45,452
1/17/2018 10 AM EST 736.53 681.25 45,651
1/17/2018 11 AM EST 736.51 681.26 45,711
1/17/2018 12 PM EST 736.52 679.17 25,489
1/17/2018 1 PM EST 736.61 678.06 23,869
1/17/2018 2 PM EST 736.64 677.54 15,237
1/17/2018 3 PM EST 736.69 676.81 10,502
1/17/2018 4 PM EST 736.66 676.75 10,275
1/17/2018 5 PM EST 736.63 676.91 10,357
1/17/2018 6 PM EST 736.58 678.21 15,989
1/17/2018 7 PM EST 736.50 680.62 30,203
1/17/2018 8 PM EST 736.47 680.99 45,153
1/17/2018 9 PM EST 736.49 681.20 45,409
1/17/2018 10 PM EST 736.47 681.24 45,531

Elevations are in feet above sea level. Discharges are in cubic feet per second and are reported at the end of the hour.